Terminal Aerodrome Forecast
Issued by NWS Louisville, KY

Home | Current Version | Previous Version | Text Only | Print | Product List | Glossary On
Versions: 1 2 3 4 5 6 7 8 9 10 11 12 13 14 15 16 17
373
FTUS43 KLMK 212333
TAFBWG
TAF
KBWG 212333Z 2200/2224 00000KT P6SM SKC
     FM220900 00000KT 3SM BR FEW200
      TEMPO 2210/2213 1SM BR
     FM221400 08005KT P6SM FEW040=

USA.gov is the U.S. government's official web portal to all federal, state and local government web resources and services.